Клоково

Карта отелей и гостиниц, располагающихся рядом с аэропортом Клоково :

Клоково
Тула
Тульская область 54° 14' 20.8788" N, 37° 36' 1.62" E
Код аэродрома ИКАО
UUBT
Код аэродрома RU
УУБТ
Координаты
N54.23913° E037.60045°
Превышение над уровнем моря
208
Основная полоса
08/26
Курс магнитный
081,5/261,5
Длина основной ВПП
1800
Ширина основной ВПП
48
Покрытие основной ВПП
Твёрдое (асфальтобетон)
Освещение ВПП
Нет
Тип: 
Аэродром
Класс аэродрома: 
Принадлежность: 
МО
Статус: 
Действующий
Сайт: 
E-mail аэродрома: 
Страна: 
Россия
Регион: 
Тульская область
Город: 
Тула
Дополнительная информация: 
Оператор: МОРФ. Нкр.=(150-600). Весной 2011 сюда с а/д «Мясново» была передислоцирована 110-я овтаэ (в/ч 25520, на Ан-2). Часть аэродрома (военный сектор) иногда используется для тренировки воинов-десантников из 51-го парашютно-десантного полка 106-й ВДД. Также имеет военный индекс ЬУБТ.

Найти трансфер

С помощью этой формы Вы можете найти трансфер из аэропорта Клоково в город, аэропорт или вокзал:

Карта места

Javascript is required to view this map.

Погода в аэропортах:

Авиационная погода в Игнатьево

Регион: 
Погода METAR: 
UHBB 050800Z 14002MPS 110V180 9999 TS SCT033CB 25/21 Q0995 R18/290350 NOSIG RMK QFE731/0975
Время наблюдения
2021-08-05T08:00:00Z
Температура C
25.0
Точка росы
21.0
Направление ветра
140
Скорость ветра (узлы)
4
Метео видимость
6.21
Явления погоды
TS
Условия полета
VFR
Аэропорт подробнее: 

Авиационная погода в Нижневартовске

Регион: 
Погода METAR: 
USNN 050800Z 36002MPS 3200 FU BKN019 19/16 Q1010 R03/0///65 NOSIG RMK QFE754
Время наблюдения
2021-08-05T08:00:00Z
Температура C
19.0
Точка росы
16.0
Направление ветра
360
Скорость ветра (узлы)
4
Метео видимость
1.99
Явления погоды
FU
Условия полета
IFR
Аэропорт подробнее: 

Авиационная погода в Братске

Регион: 
Погода METAR: 
UIBB 050800Z 31002MPS 1800 R30/1800N FU BKN027CB 21/14 Q1004 R30/CLRD60 NOSIG RMK QFE711/0948
Время наблюдения
2021-08-05T08:00:00Z
Температура C
21.0
Точка росы
14.0
Направление ветра
310
Скорость ветра (узлы)
4
Метео видимость
1.12
Явления погоды
FU
Условия полета
IFR
Аэропорт подробнее: 

Авиационная погода в аэропорту Алыкель

Регион: 
Погода METAR: 
UOOO 050800Z 02004MPS 1000 R01/1000N FU SCT024 19/14 Q1015 R01/CLRD60 NOSIG RMK QFE747/0996
Время наблюдения
2021-08-05T08:00:00Z
Температура C
19.0
Точка росы
14.0
Направление ветра
20
Скорость ветра (узлы)
8
Метео видимость
0.62
Явления погоды
FU
Условия полета
LIFR
Аэропорт подробнее: